sensor_id;sensor_type;location;lat;lon;timestamp;temperature;humidity
23160;DHT22;11748;50.844;4.396;2023-03-01T00:00:16;3.40;99.90
23160;DHT22;11748;50.844;4.396;2023-03-01T00:02:41;3.50;99.90
23160;DHT22;11748;50.844;4.396;2023-03-01T00:05:07;3.50;99.90
23160;DHT22;11748;50.844;4.396;2023-03-01T00:07:33;3.60;99.90
23160;DHT22;11748;50.844;4.396;2023-03-01T00:09:59;3.60;99.90
23160;DHT22;11748;50.844;4.396;2023-03-01T00:12:24;3.60;99.90
23160;DHT22;11748;50.844;4.396;2023-03-01T00:14:50;3.60;99.90
23160;DHT22;11748;50.844;4.396;2023-03-01T00:17:16;3.50;99.90
23160;DHT22;11748;50.844;4.396;2023-03-01T00:19:42;3.40;99.90
23160;DHT22;11748;50.844;4.396;2023-03-01T00:22:08;3.40;99.90
23160;DHT22;11748;50.844;4.396;2023-03-01T00:24:34;3.40;99.90
23160;DHT22;11748;50.844;4.396;2023-03-01T00:27:00;3.40;99.90
23160;DHT22;11748;50.844;4.396;2023-03-01T00:29:27;3.40;99.90
23160;DHT22;11748;50.844;4.396;2023-03-01T00:31:52;3.40;99.90
23160;DHT22;11748;50.844;4.396;2023-03-01T00:34:18;3.40;99.90
23160;DHT22;11748;50.844;4.396;2023-03-01T00:36:44;3.40;99.90
23160;DHT22;11748;50.844;4.396;2023-03-01T00:39:13;3.40;99.90
23160;DHT22;11748;50.844;4.396;2023-03-01T00:41:39;3.30;99.90
23160;DHT22;11748;50.844;4.396;2023-03-01T00:44:06;3.30;99.90
23160;DHT22;11748;50.844;4.396;2023-03-01T00:46:32;3.30;99.90
23160;DHT22;11748;50.844;4.396;2023-03-01T00:49:00;3.30;99.90
23160;DHT22;11748;50.844;4.396;2023-03-01T00:51:28;3.30;99.90
23160;DHT22;11748;50.844;4.396;2023-03-01T00:53:56;3.20;99.90
23160;DHT22;11748;50.844;4.396;2023-03-01T00:56:22;3.10;99.90
23160;DHT22;11748;50.844;4.396;2023-03-01T00:58:49;3.20;99.90
23160;DHT22;11748;50.844;4.396;2023-03-01T01:01:17;3.30;99.90
23160;DHT22;11748;50.844;4.396;2023-03-01T01:03:49;3.30;99.90
23160;DHT22;11748;50.844;4.396;2023-03-01T01:06:27;3.30;99.90
23160;DHT22;11748;50.844;4.396;2023-03-01T01:08:54;3.00;99.90
23160;DHT22;11748;50.844;4.396;2023-03-01T01:11:21;3.10;99.90
23160;DHT22;11748;50.844;4.396;2023-03-01T01:13:48;2.90;99.90
23160;DHT22;11748;50.844;4.396;2023-03-01T01:16:15;3.00;99.90
23160;DHT22;11748;50.844;4.396;2023-03-01T01:18:41;2.90;99.90
23160;DHT22;11748;50.844;4.396;2023-03-01T01:21:09;2.90;99.90
23160;DHT22;11748;50.844;4.396;2023-03-01T01:23:37;3.10;99.90
23160;DHT22;11748;50.844;4.396;2023-03-01T01:26:08;3.10;99.90
23160;DHT22;11748;50.844;4.396;2023-03-01T01:28:34;3.10;99.90
23160;DHT22;11748;50.844;4.396;2023-03-01T01:31:00;3.10;99.90
23160;DHT22;11748;50.844;4.396;2023-03-01T01:33:26;3.10;99.90
23160;DHT22;11748;50.844;4.396;2023-03-01T01:35:52;3.20;99.90
23160;DHT22;11748;50.844;4.396;2023-03-01T01:38:19;3.20;99.90
23160;DHT22;11748;50.844;4.396;2023-03-01T01:40:46;3.10;99.90
23160;DHT22;11748;50.844;4.396;2023-03-01T01:43:21;2.90;99.90
23160;DHT22;11748;50.844;4.396;2023-03-01T01:45:47;2.90;99.90
23160;DHT22;11748;50.844;4.396;2023-03-01T01:48:16;3.00;99.90
23160;DHT22;11748;50.844;4.396;2023-03-01T01:50:44;3.00;99.90
23160;DHT22;11748;50.844;4.396;2023-03-01T01:53:15;3.10;99.90
23160;DHT22;11748;50.844;4.396;2023-03-01T01:55:49;3.10;99.90
23160;DHT22;11748;50.844;4.396;2023-03-01T01:58:18;3.00;99.90
23160;DHT22;11748;50.844;4.396;2023-03-01T02:00:44;3.00;99.90
23160;DHT22;11748;50.844;4.396;2023-03-01T02:03:19;2.90;99.90
23160;DHT22;11748;50.844;4.396;2023-03-01T02:08:27;2.80;99.90
23160;DHT22;11748;50.844;4.396;2023-03-01T02:10:56;2.80;99.90
23160;DHT22;11748;50.844;4.396;2023-03-01T02:13:23;2.90;99.90
23160;DHT22;11748;50.844;4.396;2023-03-01T02:15:49;2.80;99.90
23160;DHT22;11748;50.844;4.396;2023-03-01T02:18:17;2.80;99.90
23160;DHT22;11748;50.844;4.396;2023-03-01T02:23:37;2.80;99.90
23160;DHT22;11748;50.844;4.396;2023-03-01T02:28:54;2.60;99.90
23160;DHT22;11748;50.844;4.396;2023-03-01T02:31:21;2.60;99.90
23160;DHT22;11748;50.844;4.396;2023-03-01T02:34:06;2.60;99.90
23160;DHT22;11748;50.844;4.396;2023-03-01T02:36:39;2.50;99.90
23160;DHT22;11748;50.844;4.396;2023-03-01T02:39:07;2.40;99.90
23160;DHT22;11748;50.844;4.396;2023-03-01T02:41:42;2.40;99.90
23160;DHT22;11748;50.844;4.396;2023-03-01T02:44:08;2.50;99.90
23160;DHT22;11748;50.844;4.396;2023-03-01T02:46:46;2.60;99.90
23160;DHT22;11748;50.844;4.396;2023-03-01T02:49:38;2.60;99.90
23160;DHT22;11748;50.844;4.396;2023-03-01T02:57:19;2.60;99.90
23160;DHT22;11748;50.844;4.396;2023-03-01T02:59:45;2.50;99.90
23160;DHT22;11748;50.844;4.396;2023-03-01T03:02:21;2.60;99.90
23160;DHT22;11748;50.844;4.396;2023-03-01T03:05:17;2.60;99.90
23160;DHT22;11748;50.844;4.396;2023-03-01T03:07:45;2.60;99.90
23160;DHT22;11748;50.844;4.396;2023-03-01T03:10:19;2.60;99.90
23160;DHT22;11748;50.844;4.396;2023-03-01T03:12:54;2.60;99.90
23160;DHT22;11748;50.844;4.396;2023-03-01T03:15:20;2.60;99.90
23160;DHT22;11748;50.844;4.396;2023-03-01T03:17:47;2.60;99.90
23160;DHT22;11748;50.844;4.396;2023-03-01T03:20:15;2.40;99.90
23160;DHT22;11748;50.844;4.396;2023-03-01T03:22:49;2.50;99.90
23160;DHT22;11748;50.844;4.396;2023-03-01T03:25:16;2.40;99.90
23160;DHT22;11748;50.844;4.396;2023-03-01T03:27:43;2.40;99.90
23160;DHT22;11748;50.844;4.396;2023-03-01T03:30:12;2.50;99.90
23160;DHT22;11748;50.844;4.396;2023-03-01T03:32:43;2.50;99.90
23160;DHT22;11748;50.844;4.396;2023-03-01T03:35:20;2.30;99.90
23160;DHT22;11748;50.844;4.396;2023-03-01T03:37:46;2.30;99.90
23160;DHT22;11748;50.844;4.396;2023-03-01T03:42:54;2.30;99.90
23160;DHT22;11748;50.844;4.396;2023-03-01T03:45:20;2.30;99.90
23160;DHT22;11748;50.844;4.396;2023-03-01T03:47:46;2.30;99.90
23160;DHT22;11748;50.844;4.396;2023-03-01T03:50:13;2.30;99.90
23160;DHT22;11748;50.844;4.396;2023-03-01T03:52:39;2.30;99.90
23160;DHT22;11748;50.844;4.396;2023-03-01T03:55:06;2.20;99.90
23160;DHT22;11748;50.844;4.396;2023-03-01T03:57:36;2.30;99.90
23160;DHT22;11748;50.844;4.396;2023-03-01T04:00:04;2.30;99.90
23160;DHT22;11748;50.844;4.396;2023-03-01T04:02:31;2.10;99.90
23160;DHT22;11748;50.844;4.396;2023-03-01T04:04:57;2.10;99.90
23160;DHT22;11748;50.844;4.396;2023-03-01T04:07:23;2.10;99.90
23160;DHT22;11748;50.844;4.396;2023-03-01T04:09:48;2.00;99.90
23160;DHT22;11748;50.844;4.396;2023-03-01T04:12:14;2.00;99.90
23160;DHT22;11748;50.844;4.396;2023-03-01T04:14:45;2.00;99.90
23160;DHT22;11748;50.844;4.396;2023-03-01T04:17:11;2.00;99.90
23160;DHT22;11748;50.844;4.396;2023-03-01T04:19:36;2.00;99.90
23160;DHT22;11748;50.844;4.396;2023-03-01T04:22:02;2.00;99.90
23160;DHT22;11748;50.844;4.396;2023-03-01T04:24:37;1.90;99.90
23160;DHT22;11748;50.844;4.396;2023-03-01T04:27:03;1.90;99.90
23160;DHT22;11748;50.844;4.396;2023-03-01T04:29:30;1.90;99.90
23160;DHT22;11748;50.844;4.396;2023-03-01T04:31:57;1.90;99.90
23160;DHT22;11748;50.844;4.396;2023-03-01T04:34:22;1.90;99.90
23160;DHT22;11748;50.844;4.396;2023-03-01T04:36:48;2.00;99.90
23160;DHT22;11748;50.844;4.396;2023-03-01T04:39:14;1.90;99.90
23160;DHT22;11748;50.844;4.396;2023-03-01T04:41:39;1.90;99.90
23160;DHT22;11748;50.844;4.396;2023-03-01T04:44:06;1.90;99.90
23160;DHT22;11748;50.844;4.396;2023-03-01T04:46:32;1.70;99.90
23160;DHT22;11748;50.844;4.396;2023-03-01T04:48:58;1.70;99.90
23160;DHT22;11748;50.844;4.396;2023-03-01T04:51:23;1.70;99.90
23160;DHT22;11748;50.844;4.396;2023-03-01T04:53:49;1.70;99.90
23160;DHT22;11748;50.844;4.396;2023-03-01T04:56:15;1.80;99.90
23160;DHT22;11748;50.844;4.396;2023-03-01T04:58:43;1.70;99.90
23160;DHT22;11748;50.844;4.396;2023-03-01T05:01:14;1.70;99.90
23160;DHT22;11748;50.844;4.396;2023-03-01T05:03:47;1.70;99.90
23160;DHT22;11748;50.844;4.396;2023-03-01T05:06:14;1.90;99.90
23160;DHT22;11748;50.844;4.396;2023-03-01T05:08:41;1.80;99.90
23160;DHT22;11748;50.844;4.396;2023-03-01T05:11:07;1.70;99.90
23160;DHT22;11748;50.844;4.396;2023-03-01T05:13:35;1.60;99.90
23160;DHT22;11748;50.844;4.396;2023-03-01T05:16:02;1.60;99.90
23160;DHT22;11748;50.844;4.396;2023-03-01T05:18:31;1.70;99.90
23160;DHT22;11748;50.844;4.396;2023-03-01T05:21:06;1.70;99.90
23160;DHT22;11748;50.844;4.396;2023-03-01T05:23:33;1.80;99.90
23160;DHT22;11748;50.844;4.396;2023-03-01T05:26:00;1.70;99.90
23160;DHT22;11748;50.844;4.396;2023-03-01T05:28:27;1.70;99.90
23160;DHT22;11748;50.844;4.396;2023-03-01T05:30:54;1.70;99.90
23160;DHT22;11748;50.844;4.396;2023-03-01T05:33:20;1.70;99.90
23160;DHT22;11748;50.844;4.396;2023-03-01T05:35:48;1.60;99.90
23160;DHT22;11748;50.844;4.396;2023-03-01T05:38:14;1.60;99.90
23160;DHT22;11748;50.844;4.396;2023-03-01T05:40:42;1.50;99.90
23160;DHT22;11748;50.844;4.396;2023-03-01T05:43:09;1.50;99.90
23160;DHT22;11748;50.844;4.396;2023-03-01T05:45:37;1.40;99.90
23160;DHT22;11748;50.844;4.396;2023-03-01T05:48:03;1.40;99.90
23160;DHT22;11748;50.844;4.396;2023-03-01T05:50:34;1.40;99.90
23160;DHT22;11748;50.844;4.396;2023-03-01T05:53:09;1.40;99.90
23160;DHT22;11748;50.844;4.396;2023-03-01T05:55:36;1.40;99.90
23160;DHT22;11748;50.844;4.396;2023-03-01T05:58:07;1.40;99.90
23160;DHT22;11748;50.844;4.396;2023-03-01T06:00:35;1.40;99.90
23160;DHT22;11748;50.844;4.396;2023-03-01T06:03:01;1.40;99.90
23160;DHT22;11748;50.844;4.396;2023-03-01T06:05:28;1.40;99.90
23160;DHT22;11748;50.844;4.396;2023-03-01T06:07:54;1.30;99.90
23160;DHT22;11748;50.844;4.396;2023-03-01T06:10:21;1.30;99.90
23160;DHT22;11748;50.844;4.396;2023-03-01T06:12:47;1.40;99.90
23160;DHT22;11748;50.844;4.396;2023-03-01T06:15:14;1.40;99.90
23160;DHT22;11748;50.844;4.396;2023-03-01T06:17:42;1.40;99.90
23160;DHT22;11748;50.844;4.396;2023-03-01T06:20:20;1.30;99.90
23160;DHT22;11748;50.844;4.396;2023-03-01T06:22:46;1.40;99.90
23160;DHT22;11748;50.844;4.396;2023-03-01T06:25:14;1.40;99.90
23160;DHT22;11748;50.844;4.396;2023-03-01T06:27:40;1.40;99.90
23160;DHT22;11748;50.844;4.396;2023-03-01T06:30:09;1.30;99.90
23160;DHT22;11748;50.844;4.396;2023-03-01T06:32:36;1.20;99.90
23160;DHT22;11748;50.844;4.396;2023-03-01T06:35:03;1.30;99.90
23160;DHT22;11748;50.844;4.396;2023-03-01T06:37:29;1.30;99.90
23160;DHT22;11748;50.844;4.396;2023-03-01T06:39:55;1.30;99.90
23160;DHT22;11748;50.844;4.396;2023-03-01T06:42:20;1.20;99.90
23160;DHT22;11748;50.844;4.396;2023-03-01T06:44:46;1.20;99.90
23160;DHT22;11748;50.844;4.396;2023-03-01T06:47:12;1.20;99.90
23160;DHT22;11748;50.844;4.396;2023-03-01T06:49:38;1.20;99.90
23160;DHT22;11748;50.844;4.396;2023-03-01T06:52:04;1.20;99.90
23160;DHT22;11748;50.844;4.396;2023-03-01T06:54:29;1.30;99.90
23160;DHT22;11748;50.844;4.396;2023-03-01T06:56:55;1.30;99.90
23160;DHT22;11748;50.844;4.396;2023-03-01T06:59:21;1.30;99.90
23160;DHT22;11748;50.844;4.396;2023-03-01T07:01:48;1.20;99.90
23160;DHT22;11748;50.844;4.396;2023-03-01T07:04:13;1.30;99.90
23160;DHT22;11748;50.844;4.396;2023-03-01T07:06:39;1.30;99.90
23160;DHT22;11748;50.844;4.396;2023-03-01T07:09:05;1.40;99.90
23160;DHT22;11748;50.844;4.396;2023-03-01T07:11:31;1.40;99.90
23160;DHT22;11748;50.844;4.396;2023-03-01T07:13:56;1.40;99.90
23160;DHT22;11748;50.844;4.396;2023-03-01T07:16:24;1.50;99.90
23160;DHT22;11748;50.844;4.396;2023-03-01T07:18:49;1.50;99.90
23160;DHT22;11748;50.844;4.396;2023-03-01T07:21:15;1.40;99.90
23160;DHT22;11748;50.844;4.396;2023-03-01T07:23:42;1.40;99.90
23160;DHT22;11748;50.844;4.396;2023-03-01T07:26:08;1.40;99.90
23160;DHT22;11748;50.844;4.396;2023-03-01T07:28:33;1.40;99.90
23160;DHT22;11748;50.844;4.396;2023-03-01T07:31:02;1.50;99.90
23160;DHT22;11748;50.844;4.396;2023-03-01T07:33:28;1.40;99.90
23160;DHT22;11748;50.844;4.396;2023-03-01T07:36:01;1.50;99.90
23160;DHT22;11748;50.844;4.396;2023-03-01T07:38:28;1.60;99.90
23160;DHT22;11748;50.844;4.396;2023-03-01T07:40:58;1.70;99.90
23160;DHT22;11748;50.844;4.396;2023-03-01T07:43:24;1.70;99.90
23160;DHT22;11748;50.844;4.396;2023-03-01T07:45:50;1.80;99.90
23160;DHT22;11748;50.844;4.396;2023-03-01T07:48:16;1.70;99.90
23160;DHT22;11748;50.844;4.396;2023-03-01T07:50:42;1.70;99.90
23160;DHT22;11748;50.844;4.396;2023-03-01T07:53:08;1.60;99.90
23160;DHT22;11748;50.844;4.396;2023-03-01T07:55:34;1.60;99.90
23160;DHT22;11748;50.844;4.396;2023-03-01T07:58:00;1.70;99.90
23160;DHT22;11748;50.844;4.396;2023-03-01T08:00:26;1.60;99.90
23160;DHT22;11748;50.844;4.396;2023-03-01T08:02:52;1.80;99.90
23160;DHT22;11748;50.844;4.396;2023-03-01T08:05:18;1.90;99.90
23160;DHT22;11748;50.844;4.396;2023-03-01T08:07:44;2.00;99.90
23160;DHT22;11748;50.844;4.396;2023-03-01T08:10:10;2.10;99.90
23160;DHT22;11748;50.844;4.396;2023-03-01T08:12:36;2.20;99.90
23160;DHT22;11748;50.844;4.396;2023-03-01T08:15:02;2.20;99.90
23160;DHT22;11748;50.844;4.396;2023-03-01T08:17:28;2.20;99.90
23160;DHT22;11748;50.844;4.396;2023-03-01T08:19:53;2.20;99.90
23160;DHT22;11748;50.844;4.396;2023-03-01T08:22:19;2.30;99.90
23160;DHT22;11748;50.844;4.396;2023-03-01T08:24:46;2.40;99.90
23160;DHT22;11748;50.844;4.396;2023-03-01T08:27:12;2.50;99.90
23160;DHT22;11748;50.844;4.396;2023-03-01T08:29:38;2.50;99.90
23160;DHT22;11748;50.844;4.396;2023-03-01T08:32:04;2.50;99.90
23160;DHT22;11748;50.844;4.396;2023-03-01T08:34:30;2.50;99.90
23160;DHT22;11748;50.844;4.396;2023-03-01T08:36:57;2.60;99.90
23160;DHT22;11748;50.844;4.396;2023-03-01T08:39:22;2.60;99.90
23160;DHT22;11748;50.844;4.396;2023-03-01T08:41:48;2.70;99.90
23160;DHT22;11748;50.844;4.396;2023-03-01T08:44:15;2.70;99.90
23160;DHT22;11748;50.844;4.396;2023-03-01T08:46:43;2.80;99.90
23160;DHT22;11748;50.844;4.396;2023-03-01T08:49:18;2.80;99.90
23160;DHT22;11748;50.844;4.396;2023-03-01T08:51:46;2.80;99.90
23160;DHT22;11748;50.844;4.396;2023-03-01T08:54:18;2.90;99.90
23160;DHT22;11748;50.844;4.396;2023-03-01T08:56:44;2.90;99.90
23160;DHT22;11748;50.844;4.396;2023-03-01T08:59:11;2.90;99.90
23160;DHT22;11748;50.844;4.396;2023-03-01T09:01:37;2.90;99.90
23160;DHT22;11748;50.844;4.396;2023-03-01T09:04:03;3.10;99.90
23160;DHT22;11748;50.844;4.396;2023-03-01T09:06:33;3.30;99.90
23160;DHT22;11748;50.844;4.396;2023-03-01T09:08:59;3.40;99.90
23160;DHT22;11748;50.844;4.396;2023-03-01T09:11:28;3.50;99.90
23160;DHT22;11748;50.844;4.396;2023-03-01T09:13:54;3.50;99.90
23160;DHT22;11748;50.844;4.396;2023-03-01T09:16:21;3.50;99.90
23160;DHT22;11748;50.844;4.396;2023-03-01T09:18:52;3.70;99.90
23160;DHT22;11748;50.844;4.396;2023-03-01T09:21:19;3.60;99.90
23160;DHT22;11748;50.844;4.396;2023-03-01T09:23:47;3.60;99.90
23160;DHT22;11748;50.844;4.396;2023-03-01T09:26:19;3.60;99.90
23160;DHT22;11748;50.844;4.396;2023-03-01T09:28:46;3.80;99.90
23160;DHT22;11748;50.844;4.396;2023-03-01T09:31:13;3.80;99.90
23160;DHT22;11748;50.844;4.396;2023-03-01T09:33:40;3.80;99.90
23160;DHT22;11748;50.844;4.396;2023-03-01T09:36:11;3.70;99.90
23160;DHT22;11748;50.844;4.396;2023-03-01T09:38:37;3.70;99.90
23160;DHT22;11748;50.844;4.396;2023-03-01T09:43:45;3.90;99.90
23160;DHT22;11748;50.844;4.396;2023-03-01T09:46:14;4.00;99.90
23160;DHT22;11748;50.844;4.396;2023-03-01T09:48:58;4.10;99.90
23160;DHT22;11748;50.844;4.396;2023-03-01T09:51:31;4.20;99.90
23160;DHT22;11748;50.844;4.396;2023-03-01T09:53:57;4.20;99.90
23160;DHT22;11748;50.844;4.396;2023-03-01T09:56:44;4.30;99.90
23160;DHT22;11748;50.844;4.396;2023-03-01T10:04:51;4.50;99.90
23160;DHT22;11748;50.844;4.396;2023-03-01T10:10:22;4.50;99.90
23160;DHT22;11748;50.844;4.396;2023-03-01T10:12:49;4.60;99.90
23160;DHT22;11748;50.844;4.396;2023-03-01T10:15:25;4.70;99.90
23160;DHT22;11748;50.844;4.396;2023-03-01T10:18:02;4.80;99.90
23160;DHT22;11748;50.844;4.396;2023-03-01T10:20:53;4.80;99.90
23160;DHT22;11748;50.844;4.396;2023-03-01T10:23:19;5.00;99.90
23160;DHT22;11748;50.844;4.396;2023-03-01T10:26:08;5.10;99.90
23160;DHT22;11748;50.844;4.396;2023-03-01T10:28:46;5.20;99.90
23160;DHT22;11748;50.844;4.396;2023-03-01T10:31:15;5.20;99.90
23160;DHT22;11748;50.844;4.396;2023-03-01T10:33:43;5.30;99.90
23160;DHT22;11748;50.844;4.396;2023-03-01T10:36:08;5.40;99.90
23160;DHT22;11748;50.844;4.396;2023-03-01T10:38:50;5.40;99.90
23160;DHT22;11748;50.844;4.396;2023-03-01T10:41:18;5.40;99.90
23160;DHT22;11748;50.844;4.396;2023-03-01T10:43:50;5.50;99.90
23160;DHT22;11748;50.844;4.396;2023-03-01T10:51:36;5.60;99.90
23160;DHT22;11748;50.844;4.396;2023-03-01T10:54:04;5.60;99.90
23160;DHT22;11748;50.844;4.396;2023-03-01T10:56:52;5.60;99.90
23160;DHT22;11748;50.844;4.396;2023-03-01T10:59:26;5.60;99.90
23160;DHT22;11748;50.844;4.396;2023-03-01T11:02:18;5.70;99.90
23160;DHT22;11748;50.844;4.396;2023-03-01T11:07:56;5.90;99.90
23160;DHT22;11748;50.844;4.396;2023-03-01T11:12:56;6.10;99.90
23160;DHT22;11748;50.844;4.396;2023-03-01T11:15:31;6.20;99.90
23160;DHT22;11748;50.844;4.396;2023-03-01T11:17:57;6.30;99.90
23160;DHT22;11748;50.844;4.396;2023-03-01T11:20:35;6.40;99.90
23160;DHT22;11748;50.844;4.396;2023-03-01T11:23:12;6.60;99.70
23160;DHT22;11748;50.844;4.396;2023-03-01T11:25:44;6.60;99.40
23160;DHT22;11748;50.844;4.396;2023-03-01T11:28:16;6.60;99.10
23160;DHT22;11748;50.844;4.396;2023-03-01T11:30:53;6.60;99.20
23160;DHT22;11748;50.844;4.396;2023-03-01T11:36:10;6.70;99.30
23160;DHT22;11748;50.844;4.396;2023-03-01T11:38:38;6.80;99.10
23160;DHT22;11748;50.844;4.396;2023-03-01T11:41:21;6.80;99.10
23160;DHT22;11748;50.844;4.396;2023-03-01T11:43:54;6.90;98.80
23160;DHT22;11748;50.844;4.396;2023-03-01T12:03:30;7.30;97.80
23160;DHT22;11748;50.844;4.396;2023-03-01T12:06:12;7.40;97.60
23160;DHT22;11748;50.844;4.396;2023-03-01T12:09:41;7.30;97.80
23160;DHT22;11748;50.844;4.396;2023-03-01T12:22:31;7.60;96.90
23160;DHT22;11748;50.844;4.396;2023-03-01T12:25:18;7.60;96.90
23160;DHT22;11748;50.844;4.396;2023-03-01T12:38:59;7.70;96.70
23160;DHT22;11748;50.844;4.396;2023-03-01T12:41:51;7.80;96.20
23160;DHT22;11748;50.844;4.396;2023-03-01T12:50:13;7.90;96.00
23160;DHT22;11748;50.844;4.396;2023-03-01T12:52:52;7.90;95.60
23160;DHT22;11748;50.844;4.396;2023-03-01T12:55:41;7.90;95.70
23160;DHT22;11748;50.844;4.396;2023-03-01T12:58:39;8.00;95.80
23160;DHT22;11748;50.844;4.396;2023-03-01T13:07:12;7.80;96.00
23160;DHT22;11748;50.844;4.396;2023-03-01T13:10:17;7.60;96.30
23160;DHT22;11748;50.844;4.396;2023-03-01T13:17:58;7.90;95.70
23160;DHT22;11748;50.844;4.396;2023-03-01T13:20:26;8.10;95.50
23160;DHT22;11748;50.844;4.396;2023-03-01T13:28:50;8.30;95.10
23160;DHT22;11748;50.844;4.396;2023-03-01T13:36:44;8.10;95.30
23160;DHT22;11748;50.844;4.396;2023-03-01T13:39:04;8.30;95.00
23160;DHT22;11748;50.844;4.396;2023-03-01T13:46:54;8.40;94.50
23160;DHT22;11748;50.844;4.396;2023-03-01T13:49:31;8.40;94.60
23160;DHT22;11748;50.844;4.396;2023-03-01T13:52:02;8.50;94.20
23160;DHT22;11748;50.844;4.396;2023-03-01T13:54:32;8.50;94.10
23160;DHT22;11748;50.844;4.396;2023-03-01T13:57:00;8.50;94.20
23160;DHT22;11748;50.844;4.396;2023-03-01T13:59:26;8.50;93.90
23160;DHT22;11748;50.844;4.396;2023-03-01T14:01:54;8.50;93.90
23160;DHT22;11748;50.844;4.396;2023-03-01T14:04:30;8.10;94.50
23160;DHT22;11748;50.844;4.396;2023-03-01T14:07:30;8.10;95.00
23160;DHT22;11748;50.844;4.396;2023-03-01T14:10:04;8.30;94.20
23160;DHT22;11748;50.844;4.396;2023-03-01T14:15:33;8.30;94.10
23160;DHT22;11748;50.844;4.396;2023-03-01T14:18:10;8.30;94.20
23160;DHT22;11748;50.844;4.396;2023-03-01T14:20:41;8.40;94.00
23160;DHT22;11748;50.844;4.396;2023-03-01T14:23:17;8.50;93.80
23160;DHT22;11748;50.844;4.396;2023-03-01T14:26:02;8.50;93.60
23160;DHT22;11748;50.844;4.396;2023-03-01T14:28:31;8.50;93.90
23160;DHT22;11748;50.844;4.396;2023-03-01T14:31:00;8.50;94.00
23160;DHT22;11748;50.844;4.396;2023-03-01T14:33:33;8.50;94.20
23160;DHT22;11748;50.844;4.396;2023-03-01T14:41:10;8.60;93.60
23160;DHT22;11748;50.844;4.396;2023-03-01T14:43:43;8.40;93.80
23160;DHT22;11748;50.844;4.396;2023-03-01T14:46:36;8.30;93.80
23160;DHT22;11748;50.844;4.396;2023-03-01T14:49:19;8.30;93.70
23160;DHT22;11748;50.844;4.396;2023-03-01T14:54:26;8.30;94.10
23160;DHT22;11748;50.844;4.396;2023-03-01T14:56:54;8.30;93.80
23160;DHT22;11748;50.844;4.396;2023-03-01T14:59:23;8.30;94.00
23160;DHT22;11748;50.844;4.396;2023-03-01T15:01:51;8.00;94.50
23160;DHT22;11748;50.844;4.396;2023-03-01T15:04:18;8.00;94.60
23160;DHT22;11748;50.844;4.396;2023-03-01T15:06:46;8.20;94.40
23160;DHT22;11748;50.844;4.396;2023-03-01T15:09:15;8.30;93.90
23160;DHT22;11748;50.844;4.396;2023-03-01T15:11:43;8.40;93.60
23160;DHT22;11748;50.844;4.396;2023-03-01T15:14:36;8.40;93.80
23160;DHT22;11748;50.844;4.396;2023-03-01T15:17:04;8.30;94.00
23160;DHT22;11748;50.844;4.396;2023-03-01T15:19:29;8.40;94.00
23160;DHT22;11748;50.844;4.396;2023-03-01T15:21:55;8.30;94.20
23160;DHT22;11748;50.844;4.396;2023-03-01T15:24:25;8.20;94.40
23160;DHT22;11748;50.844;4.396;2023-03-01T15:26:58;8.20;94.40
23160;DHT22;11748;50.844;4.396;2023-03-01T15:29:29;8.20;94.60
23160;DHT22;11748;50.844;4.396;2023-03-01T15:31:58;8.30;94.50
23160;DHT22;11748;50.844;4.396;2023-03-01T15:34:28;8.20;94.40
23160;DHT22;11748;50.844;4.396;2023-03-01T15:36:55;8.30;94.80
23160;DHT22;11748;50.844;4.396;2023-03-01T15:39:36;8.10;94.80
23160;DHT22;11748;50.844;4.396;2023-03-01T15:42:59;8.30;94.60
23160;DHT22;11748;50.844;4.396;2023-03-01T15:45:10;8.30;94.20
23160;DHT22;11748;50.844;4.396;2023-03-01T15:47:39;8.30;94.40
23160;DHT22;11748;50.844;4.396;2023-03-01T15:50:12;8.30;94.50
23160;DHT22;11748;50.844;4.396;2023-03-01T15:52:42;8.30;94.30
23160;DHT22;11748;50.844;4.396;2023-03-01T15:55:38;8.20;94.40
23160;DHT22;11748;50.844;4.396;2023-03-01T15:58:12;8.20;94.40
23160;DHT22;11748;50.844;4.396;2023-03-01T16:00:38;8.30;94.20
23160;DHT22;11748;50.844;4.396;2023-03-01T16:03:05;8.10;94.30
23160;DHT22;11748;50.844;4.396;2023-03-01T16:05:33;8.20;94.10
23160;DHT22;11748;50.844;4.396;2023-03-01T16:08:00;8.20;94.20
23160;DHT22;11748;50.844;4.396;2023-03-01T16:10:27;8.20;94.30
23160;DHT22;11748;50.844;4.396;2023-03-01T16:12:53;8.10;94.30
23160;DHT22;11748;50.844;4.396;2023-03-01T16:17:48;8.20;94.10
23160;DHT22;11748;50.844;4.396;2023-03-01T16:20:15;8.10;94.20
23160;DHT22;11748;50.844;4.396;2023-03-01T16:22:44;8.00;94.40
23160;DHT22;11748;50.844;4.396;2023-03-01T16:25:15;8.00;94.40
23160;DHT22;11748;50.844;4.396;2023-03-01T16:27:45;8.00;94.60
23160;DHT22;11748;50.844;4.396;2023-03-01T16:30:13;7.90;94.90
23160;DHT22;11748;50.844;4.396;2023-03-01T16:32:40;8.00;95.10
23160;DHT22;11748;50.844;4.396;2023-03-01T16:35:07;7.90;95.30
23160;DHT22;11748;50.844;4.396;2023-03-01T16:37:33;7.90;95.30
23160;DHT22;11748;50.844;4.396;2023-03-01T16:39:59;7.90;95.40
23160;DHT22;11748;50.844;4.396;2023-03-01T16:42:25;7.90;95.20
23160;DHT22;11748;50.844;4.396;2023-03-01T16:44:57;7.80;95.10
23160;DHT22;11748;50.844;4.396;2023-03-01T16:47:23;7.80;95.20
23160;DHT22;11748;50.844;4.396;2023-03-01T16:49:52;7.80;95.00
23160;DHT22;11748;50.844;4.396;2023-03-01T16:52:18;7.80;95.10
23160;DHT22;11748;50.844;4.396;2023-03-01T16:54:44;7.60;95.30
23160;DHT22;11748;50.844;4.396;2023-03-01T16:57:09;7.70;95.40
23160;DHT22;11748;50.844;4.396;2023-03-01T16:59:35;7.70;95.50
23160;DHT22;11748;50.844;4.396;2023-03-01T17:02:03;7.60;95.70
23160;DHT22;11748;50.844;4.396;2023-03-01T17:04:28;7.60;95.90
23160;DHT22;11748;50.844;4.396;2023-03-01T17:06:54;7.50;96.00
23160;DHT22;11748;50.844;4.396;2023-03-01T17:09:20;7.60;96.20
23160;DHT22;11748;50.844;4.396;2023-03-01T17:11:48;7.50;96.20
23160;DHT22;11748;50.844;4.396;2023-03-01T17:14:14;7.60;96.30
23160;DHT22;11748;50.844;4.396;2023-03-01T17:16:43;7.50;96.50
23160;DHT22;11748;50.844;4.396;2023-03-01T17:19:10;7.50;96.50
23160;DHT22;11748;50.844;4.396;2023-03-01T17:21:36;7.50;96.60
23160;DHT22;11748;50.844;4.396;2023-03-01T17:24:02;7.40;96.70
23160;DHT22;11748;50.844;4.396;2023-03-01T17:26:28;7.40;96.90
23160;DHT22;11748;50.844;4.396;2023-03-01T17:28:56;7.50;96.90
23160;DHT22;11748;50.844;4.396;2023-03-01T17:31:22;7.40;96.80
23160;DHT22;11748;50.844;4.396;2023-03-01T17:33:48;7.40;96.70
23160;DHT22;11748;50.844;4.396;2023-03-01T17:36:15;7.30;96.80
23160;DHT22;11748;50.844;4.396;2023-03-01T17:38:41;7.30;96.70
23160;DHT22;11748;50.844;4.396;2023-03-01T17:41:06;7.30;96.80
23160;DHT22;11748;50.844;4.396;2023-03-01T17:43:32;7.30;96.80
23160;DHT22;11748;50.844;4.396;2023-03-01T17:45:59;7.20;96.80
23160;DHT22;11748;50.844;4.396;2023-03-01T17:48:25;7.20;96.80
23160;DHT22;11748;50.844;4.396;2023-03-01T17:50:51;7.10;96.90
23160;DHT22;11748;50.844;4.396;2023-03-01T17:53:17;7.10;97.00
23160;DHT22;11748;50.844;4.396;2023-03-01T17:55:43;7.00;96.90
23160;DHT22;11748;50.844;4.396;2023-03-01T17:58:12;6.90;97.10
23160;DHT22;11748;50.844;4.396;2023-03-01T18:00:38;6.90;97.20
23160;DHT22;11748;50.844;4.396;2023-03-01T18:03:05;6.90;97.10
23160;DHT22;11748;50.844;4.396;2023-03-01T18:05:32;6.90;97.10